sensor_id;sensor_type;location;lat;lon;timestamp;temperature;humidity
24326;DHT22;12448;45.532;5.290;2023-01-25T00:01:43;3.40;95.80
24326;DHT22;12448;45.532;5.290;2023-01-25T00:04:09;3.40;96.20
24326;DHT22;12448;45.532;5.290;2023-01-25T00:06:35;3.40;95.90
24326;DHT22;12448;45.532;5.290;2023-01-25T00:09:00;3.40;95.90
24326;DHT22;12448;45.532;5.290;2023-01-25T00:11:26;3.40;95.80
24326;DHT22;12448;45.532;5.290;2023-01-25T00:13:53;3.40;95.90
24326;DHT22;12448;45.532;5.290;2023-01-25T00:16:19;3.40;95.90
24326;DHT22;12448;45.532;5.290;2023-01-25T00:18:44;3.30;95.80
24326;DHT22;12448;45.532;5.290;2023-01-25T00:21:15;3.30;95.80
24326;DHT22;12448;45.532;5.290;2023-01-25T00:23:41;3.30;95.80
24326;DHT22;12448;45.532;5.290;2023-01-25T00:26:07;3.40;95.80
24326;DHT22;12448;45.532;5.290;2023-01-25T00:28:32;3.40;95.80
24326;DHT22;12448;45.532;5.290;2023-01-25T00:31:02;3.40;95.80
24326;DHT22;12448;45.532;5.290;2023-01-25T00:33:38;3.40;95.80
24326;DHT22;12448;45.532;5.290;2023-01-25T00:38:52;3.40;95.80
24326;DHT22;12448;45.532;5.290;2023-01-25T00:41:18;3.40;95.80
24326;DHT22;12448;45.532;5.290;2023-01-25T00:43:44;3.40;95.80
24326;DHT22;12448;45.532;5.290;2023-01-25T00:46:14;3.40;95.80
24326;DHT22;12448;45.532;5.290;2023-01-25T00:48:40;3.40;95.80
24326;DHT22;12448;45.532;5.290;2023-01-25T00:51:06;3.40;95.80
24326;DHT22;12448;45.532;5.290;2023-01-25T00:53:31;3.50;95.80
24326;DHT22;12448;45.532;5.290;2023-01-25T00:55:57;3.50;95.80
24326;DHT22;12448;45.532;5.290;2023-01-25T00:58:22;3.60;95.80
24326;DHT22;12448;45.532;5.290;2023-01-25T01:00:48;3.60;95.80
24326;DHT22;12448;45.532;5.290;2023-01-25T01:03:14;3.60;95.70
24326;DHT22;12448;45.532;5.290;2023-01-25T01:05:40;3.80;95.80
24326;DHT22;12448;45.532;5.290;2023-01-25T01:08:05;3.60;95.70
24326;DHT22;12448;45.532;5.290;2023-01-25T01:10:31;3.70;95.70
24326;DHT22;12448;45.532;5.290;2023-01-25T01:12:56;3.70;95.70
24326;DHT22;12448;45.532;5.290;2023-01-25T01:15:22;3.70;95.70
24326;DHT22;12448;45.532;5.290;2023-01-25T01:17:48;3.60;95.60
24326;DHT22;12448;45.532;5.290;2023-01-25T01:20:13;3.60;95.60
24326;DHT22;12448;45.532;5.290;2023-01-25T01:22:39;3.60;95.70
24326;DHT22;12448;45.532;5.290;2023-01-25T01:25:05;3.60;95.70
24326;DHT22;12448;45.532;5.290;2023-01-25T01:27:31;3.60;95.70
24326;DHT22;12448;45.532;5.290;2023-01-25T01:29:56;3.50;96.00
24326;DHT22;12448;45.532;5.290;2023-01-25T01:32:22;3.50;95.70
24326;DHT22;12448;45.532;5.290;2023-01-25T01:34:47;3.40;95.80
24326;DHT22;12448;45.532;5.290;2023-01-25T01:37:13;3.50;96.20
24326;DHT22;12448;45.532;5.290;2023-01-25T01:39:39;3.50;95.80
24326;DHT22;12448;45.532;5.290;2023-01-25T01:42:04;3.50;95.80
24326;DHT22;12448;45.532;5.290;2023-01-25T01:47:13;3.50;95.80
24326;DHT22;12448;45.532;5.290;2023-01-25T01:49:39;3.60;95.90
24326;DHT22;12448;45.532;5.290;2023-01-25T01:52:15;3.60;95.90
24326;DHT22;12448;45.532;5.290;2023-01-25T01:54:55;3.60;95.90
24326;DHT22;12448;45.532;5.290;2023-01-25T01:57:34;3.60;95.80
24326;DHT22;12448;45.532;5.290;2023-01-25T02:00:09;3.70;95.80
24326;DHT22;12448;45.532;5.290;2023-01-25T02:02:36;3.60;95.70
24326;DHT22;12448;45.532;5.290;2023-01-25T02:05:04;3.60;95.70
24326;DHT22;12448;45.532;5.290;2023-01-25T02:07:33;3.50;96.10
24326;DHT22;12448;45.532;5.290;2023-01-25T02:10:00;3.50;95.80
24326;DHT22;12448;45.532;5.290;2023-01-25T02:12:26;3.50;95.80
24326;DHT22;12448;45.532;5.290;2023-01-25T02:14:53;3.50;95.90
24326;DHT22;12448;45.532;5.290;2023-01-25T02:17:29;3.50;96.20
24326;DHT22;12448;45.532;5.290;2023-01-25T02:20:41;3.50;95.90
24326;DHT22;12448;45.532;5.290;2023-01-25T02:23:30;3.50;95.90
24326;DHT22;12448;45.532;5.290;2023-01-25T02:26:01;3.50;95.90
24326;DHT22;12448;45.532;5.290;2023-01-25T02:28:48;3.50;96.00
24326;DHT22;12448;45.532;5.290;2023-01-25T02:31:16;3.60;96.00
24326;DHT22;12448;45.532;5.290;2023-01-25T02:33:42;3.60;96.00
24326;DHT22;12448;45.532;5.290;2023-01-25T02:38:36;3.50;95.90
24326;DHT22;12448;45.532;5.290;2023-01-25T02:43:43;3.50;95.90
24326;DHT22;12448;45.532;5.290;2023-01-25T02:46:27;3.60;95.90
24326;DHT22;12448;45.532;5.290;2023-01-25T02:48:55;3.60;95.90
24326;DHT22;12448;45.532;5.290;2023-01-25T02:51:23;3.60;95.90
24326;DHT22;12448;45.532;5.290;2023-01-25T02:53:49;3.50;95.90
24326;DHT22;12448;45.532;5.290;2023-01-25T02:56:15;3.50;95.90
24326;DHT22;12448;45.532;5.290;2023-01-25T02:58:41;3.50;96.00
24326;DHT22;12448;45.532;5.290;2023-01-25T03:01:07;3.50;96.00
24326;DHT22;12448;45.532;5.290;2023-01-25T03:03:33;3.50;95.90
24326;DHT22;12448;45.532;5.290;2023-01-25T03:05:58;3.50;96.00
24326;DHT22;12448;45.532;5.290;2023-01-25T03:08:24;3.50;95.90
24326;DHT22;12448;45.532;5.290;2023-01-25T03:10:50;3.50;96.00
24326;DHT22;12448;45.532;5.290;2023-01-25T03:13:15;3.50;96.10
24326;DHT22;12448;45.532;5.290;2023-01-25T03:15:41;3.50;96.10
24326;DHT22;12448;45.532;5.290;2023-01-25T03:18:06;3.50;96.10
24326;DHT22;12448;45.532;5.290;2023-01-25T03:20:32;3.50;96.10
24326;DHT22;12448;45.532;5.290;2023-01-25T03:22:58;3.50;96.40
24326;DHT22;12448;45.532;5.290;2023-01-25T03:25:23;3.50;96.20
24326;DHT22;12448;45.532;5.290;2023-01-25T03:27:49;3.40;96.10
24326;DHT22;12448;45.532;5.290;2023-01-25T03:30:14;3.40;96.20
24326;DHT22;12448;45.532;5.290;2023-01-25T03:32:40;3.40;96.20
24326;DHT22;12448;45.532;5.290;2023-01-25T03:35:06;3.50;96.20
24326;DHT22;12448;45.532;5.290;2023-01-25T03:37:31;3.50;96.30
24326;DHT22;12448;45.532;5.290;2023-01-25T03:39:58;3.50;96.20
24326;DHT22;12448;45.532;5.290;2023-01-25T03:42:24;3.50;96.20
24326;DHT22;12448;45.532;5.290;2023-01-25T03:44:50;3.50;96.20
24326;DHT22;12448;45.532;5.290;2023-01-25T03:47:15;3.50;96.50
24326;DHT22;12448;45.532;5.290;2023-01-25T03:49:41;3.60;96.20
24326;DHT22;12448;45.532;5.290;2023-01-25T03:52:07;3.60;96.20
24326;DHT22;12448;45.532;5.290;2023-01-25T03:54:32;3.50;96.20
24326;DHT22;12448;45.532;5.290;2023-01-25T03:56:58;3.60;96.20
24326;DHT22;12448;45.532;5.290;2023-01-25T03:59:24;3.50;96.10
24326;DHT22;12448;45.532;5.290;2023-01-25T04:01:50;3.50;96.20
24326;DHT22;12448;45.532;5.290;2023-01-25T04:04:16;3.60;96.20
24326;DHT22;12448;45.532;5.290;2023-01-25T04:06:41;3.50;96.30
24326;DHT22;12448;45.532;5.290;2023-01-25T04:09:08;3.50;96.20
24326;DHT22;12448;45.532;5.290;2023-01-25T04:11:33;3.50;96.30
24326;DHT22;12448;45.532;5.290;2023-01-25T04:13:59;3.60;96.50
24326;DHT22;12448;45.532;5.290;2023-01-25T04:16:24;3.30;96.40
24326;DHT22;12448;45.532;5.290;2023-01-25T04:18:51;3.30;96.60
24326;DHT22;12448;45.532;5.290;2023-01-25T04:21:17;3.30;96.50
24326;DHT22;12448;45.532;5.290;2023-01-25T04:23:42;3.30;96.50
24326;DHT22;12448;45.532;5.290;2023-01-25T04:26:09;3.40;96.70
24326;DHT22;12448;45.532;5.290;2023-01-25T04:28:37;3.40;96.70
24326;DHT22;12448;45.532;5.290;2023-01-25T04:31:03;3.40;96.70
24326;DHT22;12448;45.532;5.290;2023-01-25T04:33:31;3.40;96.70
24326;DHT22;12448;45.532;5.290;2023-01-25T04:35:57;3.50;96.70
24326;DHT22;12448;45.532;5.290;2023-01-25T04:38:23;3.50;96.60
24326;DHT22;12448;45.532;5.290;2023-01-25T04:40:50;3.50;96.60
24326;DHT22;12448;45.532;5.290;2023-01-25T04:43:17;3.60;96.60
24326;DHT22;12448;45.532;5.290;2023-01-25T04:45:42;3.50;96.60
24326;DHT22;12448;45.532;5.290;2023-01-25T04:48:10;3.50;96.60
24326;DHT22;12448;45.532;5.290;2023-01-25T04:50:37;3.50;96.50
24326;DHT22;12448;45.532;5.290;2023-01-25T04:53:03;3.50;96.60
24326;DHT22;12448;45.532;5.290;2023-01-25T04:55:29;3.40;96.60
24326;DHT22;12448;45.532;5.290;2023-01-25T04:57:55;3.40;96.60
24326;DHT22;12448;45.532;5.290;2023-01-25T05:00:21;3.40;96.70
24326;DHT22;12448;45.532;5.290;2023-01-25T05:02:47;3.40;96.80
24326;DHT22;12448;45.532;5.290;2023-01-25T05:05:12;3.40;96.80
24326;DHT22;12448;45.532;5.290;2023-01-25T05:07:38;3.40;96.80
24326;DHT22;12448;45.532;5.290;2023-01-25T05:10:05;3.40;96.80
24326;DHT22;12448;45.532;5.290;2023-01-25T05:12:31;3.30;96.80
24326;DHT22;12448;45.532;5.290;2023-01-25T05:14:56;3.50;96.90
24326;DHT22;12448;45.532;5.290;2023-01-25T05:17:22;3.40;96.80
24326;DHT22;12448;45.532;5.290;2023-01-25T05:19:48;3.30;96.80
24326;DHT22;12448;45.532;5.290;2023-01-25T05:22:14;3.40;96.90
24326;DHT22;12448;45.532;5.290;2023-01-25T05:24:41;3.40;96.90
24326;DHT22;12448;45.532;5.290;2023-01-25T05:27:08;3.40;96.80
24326;DHT22;12448;45.532;5.290;2023-01-25T05:29:40;3.40;96.80
24326;DHT22;12448;45.532;5.290;2023-01-25T05:34:36;3.30;96.80
24326;DHT22;12448;45.532;5.290;2023-01-25T05:37:03;3.30;96.80
24326;DHT22;12448;45.532;5.290;2023-01-25T05:39:29;3.30;96.90
24326;DHT22;12448;45.532;5.290;2023-01-25T05:41:55;3.20;97.00
24326;DHT22;12448;45.532;5.290;2023-01-25T05:44:20;3.10;97.00
24326;DHT22;12448;45.532;5.290;2023-01-25T05:46:47;3.10;97.20
24326;DHT22;12448;45.532;5.290;2023-01-25T05:49:13;3.10;97.20
24326;DHT22;12448;45.532;5.290;2023-01-25T05:51:40;3.10;97.40
24326;DHT22;12448;45.532;5.290;2023-01-25T05:54:06;3.10;97.30
24326;DHT22;12448;45.532;5.290;2023-01-25T05:56:32;3.10;97.30
24326;DHT22;12448;45.532;5.290;2023-01-25T05:58:59;3.10;97.30
24326;DHT22;12448;45.532;5.290;2023-01-25T06:01:26;3.10;97.20
24326;DHT22;12448;45.532;5.290;2023-01-25T06:03:52;3.10;97.20
24326;DHT22;12448;45.532;5.290;2023-01-25T06:06:18;3.00;97.20
24326;DHT22;12448;45.532;5.290;2023-01-25T06:08:43;3.00;97.20
24326;DHT22;12448;45.532;5.290;2023-01-25T06:11:15;3.00;97.30
24326;DHT22;12448;45.532;5.290;2023-01-25T06:13:41;3.00;97.30
24326;DHT22;12448;45.532;5.290;2023-01-25T06:16:07;3.00;97.20
24326;DHT22;12448;45.532;5.290;2023-01-25T06:18:34;3.00;97.30
24326;DHT22;12448;45.532;5.290;2023-01-25T06:21:01;3.00;97.20
24326;DHT22;12448;45.532;5.290;2023-01-25T06:23:27;3.00;97.20
24326;DHT22;12448;45.532;5.290;2023-01-25T06:25:57;2.90;97.10
24326;DHT22;12448;45.532;5.290;2023-01-25T06:28:22;3.00;97.10
24326;DHT22;12448;45.532;5.290;2023-01-25T06:30:48;3.00;97.10
24326;DHT22;12448;45.532;5.290;2023-01-25T06:33:14;2.90;97.10
24326;DHT22;12448;45.532;5.290;2023-01-25T06:35:39;2.80;97.20
24326;DHT22;12448;45.532;5.290;2023-01-25T06:38:05;2.80;97.30
24326;DHT22;12448;45.532;5.290;2023-01-25T06:40:31;2.80;97.30
24326;DHT22;12448;45.532;5.290;2023-01-25T06:43:09;2.80;97.40
24326;DHT22;12448;45.532;5.290;2023-01-25T06:45:35;2.80;97.30
24326;DHT22;12448;45.532;5.290;2023-01-25T06:48:00;2.80;97.30
24326;DHT22;12448;45.532;5.290;2023-01-25T06:50:26;2.90;97.30
24326;DHT22;12448;45.532;5.290;2023-01-25T06:52:53;2.80;97.60
24326;DHT22;12448;45.532;5.290;2023-01-25T06:55:19;2.90;97.30
24326;DHT22;12448;45.532;5.290;2023-01-25T06:57:45;2.90;97.30
24326;DHT22;12448;45.532;5.290;2023-01-25T07:00:11;2.80;97.30
24326;DHT22;12448;45.532;5.290;2023-01-25T07:02:37;2.90;97.30
24326;DHT22;12448;45.532;5.290;2023-01-25T07:05:03;2.90;97.30
24326;DHT22;12448;45.532;5.290;2023-01-25T07:07:29;2.90;97.30
24326;DHT22;12448;45.532;5.290;2023-01-25T07:09:54;2.90;97.30
24326;DHT22;12448;45.532;5.290;2023-01-25T07:12:20;3.00;97.30
24326;DHT22;12448;45.532;5.290;2023-01-25T07:14:46;3.40;97.40
24326;DHT22;12448;45.532;5.290;2023-01-25T07:17:14;2.90;97.10
24326;DHT22;12448;45.532;5.290;2023-01-25T07:19:39;3.00;97.20
24326;DHT22;12448;45.532;5.290;2023-01-25T07:22:05;3.00;97.20
24326;DHT22;12448;45.532;5.290;2023-01-25T07:24:30;3.00;97.20
24326;DHT22;12448;45.532;5.290;2023-01-25T07:26:56;3.00;97.10
24326;DHT22;12448;45.532;5.290;2023-01-25T07:29:22;3.00;97.20
24326;DHT22;12448;45.532;5.290;2023-01-25T07:31:47;3.00;97.10
24326;DHT22;12448;45.532;5.290;2023-01-25T07:34:13;3.00;97.10
24326;DHT22;12448;45.532;5.290;2023-01-25T07:36:39;3.00;97.10
24326;DHT22;12448;45.532;5.290;2023-01-25T07:39:06;3.00;97.10
24326;DHT22;12448;45.532;5.290;2023-01-25T07:41:34;3.00;97.10
24326;DHT22;12448;45.532;5.290;2023-01-25T07:43:59;3.00;97.10
24326;DHT22;12448;45.532;5.290;2023-01-25T07:46:25;3.00;97.20
24326;DHT22;12448;45.532;5.290;2023-01-25T07:48:52;3.00;97.20
24326;DHT22;12448;45.532;5.290;2023-01-25T07:51:19;3.00;97.20
24326;DHT22;12448;45.532;5.290;2023-01-25T07:54:02;3.00;97.10
24326;DHT22;12448;45.532;5.290;2023-01-25T07:56:35;3.10;97.10
24326;DHT22;12448;45.532;5.290;2023-01-25T07:59:03;3.10;97.10
24326;DHT22;12448;45.532;5.290;2023-01-25T08:01:29;3.00;97.00
24326;DHT22;12448;45.532;5.290;2023-01-25T08:03:59;3.10;97.30
24326;DHT22;12448;45.532;5.290;2023-01-25T08:06:33;3.00;97.00
24326;DHT22;12448;45.532;5.290;2023-01-25T08:09:02;3.00;97.10
24326;DHT22;12448;45.532;5.290;2023-01-25T08:11:30;3.10;97.20
24326;DHT22;12448;45.532;5.290;2023-01-25T08:13:55;3.10;97.10
24326;DHT22;12448;45.532;5.290;2023-01-25T08:16:24;3.00;97.10
24326;DHT22;12448;45.532;5.290;2023-01-25T08:18:52;3.00;97.00
24326;DHT22;12448;45.532;5.290;2023-01-25T08:21:18;3.10;97.10
24326;DHT22;12448;45.532;5.290;2023-01-25T08:23:44;3.10;97.10
24326;DHT22;12448;45.532;5.290;2023-01-25T08:26:11;3.10;96.90
24326;DHT22;12448;45.532;5.290;2023-01-25T08:28:37;3.10;97.00
24326;DHT22;12448;45.532;5.290;2023-01-25T08:31:13;3.10;97.00
24326;DHT22;12448;45.532;5.290;2023-01-25T08:33:40;3.10;96.90
24326;DHT22;12448;45.532;5.290;2023-01-25T08:36:07;3.10;96.90
24326;DHT22;12448;45.532;5.290;2023-01-25T08:38:34;3.10;96.90
24326;DHT22;12448;45.532;5.290;2023-01-25T08:41:11;3.10;97.00
24326;DHT22;12448;45.532;5.290;2023-01-25T08:43:37;3.10;96.90
24326;DHT22;12448;45.532;5.290;2023-01-25T08:46:03;3.10;96.90
24326;DHT22;12448;45.532;5.290;2023-01-25T08:48:29;3.10;96.90
24326;DHT22;12448;45.532;5.290;2023-01-25T08:50:55;3.20;96.90
24326;DHT22;12448;45.532;5.290;2023-01-25T08:53:21;3.20;96.90
24326;DHT22;12448;45.532;5.290;2023-01-25T08:55:47;3.30;97.10
24326;DHT22;12448;45.532;5.290;2023-01-25T08:58:14;3.30;96.80
24326;DHT22;12448;45.532;5.290;2023-01-25T09:00:42;3.20;96.60
24326;DHT22;12448;45.532;5.290;2023-01-25T09:03:09;3.30;96.70
24326;DHT22;12448;45.532;5.290;2023-01-25T09:05:36;3.20;96.60
24326;DHT22;12448;45.532;5.290;2023-01-25T09:08:03;3.20;96.60
24326;DHT22;12448;45.532;5.290;2023-01-25T09:10:29;3.20;96.60
24326;DHT22;12448;45.532;5.290;2023-01-25T09:12:55;3.20;96.60
24326;DHT22;12448;45.532;5.290;2023-01-25T09:15:21;3.20;96.60
24326;DHT22;12448;45.532;5.290;2023-01-25T09:17:52;3.80;96.70
24326;DHT22;12448;45.532;5.290;2023-01-25T09:20:18;3.20;96.60
24326;DHT22;12448;45.532;5.290;2023-01-25T09:22:44;3.20;96.60
24326;DHT22;12448;45.532;5.290;2023-01-25T09:25:10;3.20;96.60
24326;DHT22;12448;45.532;5.290;2023-01-25T09:27:36;3.20;96.50
24326;DHT22;12448;45.532;5.290;2023-01-25T09:30:03;3.20;96.80
24326;DHT22;12448;45.532;5.290;2023-01-25T09:32:29;3.10;96.50
24326;DHT22;12448;45.532;5.290;2023-01-25T09:34:54;3.20;96.50
24326;DHT22;12448;45.532;5.290;2023-01-25T09:37:20;3.10;96.50
24326;DHT22;12448;45.532;5.290;2023-01-25T09:39:45;3.10;96.60
24326;DHT22;12448;45.532;5.290;2023-01-25T09:45:26;3.20;96.50
24326;DHT22;12448;45.532;5.290;2023-01-25T09:48:21;3.10;96.40
24326;DHT22;12448;45.532;5.290;2023-01-25T09:53:48;3.10;96.40
24326;DHT22;12448;45.532;5.290;2023-01-25T09:56:34;3.10;96.50
24326;DHT22;12448;45.532;5.290;2023-01-25T09:59:09;3.10;96.50
24326;DHT22;12448;45.532;5.290;2023-01-25T10:06:51;3.20;96.80
24326;DHT22;12448;45.532;5.290;2023-01-25T10:12:21;3.20;96.10
24326;DHT22;12448;45.532;5.290;2023-01-25T10:14:48;3.20;96.00
24326;DHT22;12448;45.532;5.290;2023-01-25T10:17:34;3.20;96.10
24326;DHT22;12448;45.532;5.290;2023-01-25T10:22:36;3.20;96.10
24326;DHT22;12448;45.532;5.290;2023-01-25T10:31:45;3.30;96.30
24326;DHT22;12448;45.532;5.290;2023-01-25T10:34:35;3.30;96.10
24326;DHT22;12448;45.532;5.290;2023-01-25T10:37:23;3.30;96.10
24326;DHT22;12448;45.532;5.290;2023-01-25T10:42:21;3.40;96.10
24326;DHT22;12448;45.532;5.290;2023-01-25T10:44:48;3.40;95.90
24326;DHT22;12448;45.532;5.290;2023-01-25T10:47:32;3.40;95.90
24326;DHT22;12448;45.532;5.290;2023-01-25T10:49:59;3.40;95.80
24326;DHT22;12448;45.532;5.290;2023-01-25T10:52:30;3.50;95.70
24326;DHT22;12448;45.532;5.290;2023-01-25T10:55:19;3.40;95.40
24326;DHT22;12448;45.532;5.290;2023-01-25T10:57:49;3.40;95.30
24326;DHT22;12448;45.532;5.290;2023-01-25T11:00:39;3.40;95.20
24326;DHT22;12448;45.532;5.290;2023-01-25T11:03:08;3.30;95.20
24326;DHT22;12448;45.532;5.290;2023-01-25T11:05:55;3.30;95.10
24326;DHT22;12448;45.532;5.290;2023-01-25T11:10:54;3.20;94.70
24326;DHT22;12448;45.532;5.290;2023-01-25T11:13:22;3.20;94.80
24326;DHT22;12448;45.532;5.290;2023-01-25T11:15:51;3.20;94.80
24326;DHT22;12448;45.532;5.290;2023-01-25T11:20:43;3.20;94.80
24326;DHT22;12448;45.532;5.290;2023-01-25T11:23:35;3.20;94.80
24326;DHT22;12448;45.532;5.290;2023-01-25T11:26:13;3.20;94.80
24326;DHT22;12448;45.532;5.290;2023-01-25T11:28:38;3.20;94.80
24326;DHT22;12448;45.532;5.290;2023-01-25T11:31:09;3.20;94.60
24326;DHT22;12448;45.532;5.290;2023-01-25T11:33:35;3.10;94.40
24326;DHT22;12448;45.532;5.290;2023-01-25T11:36:28;3.10;94.50
24326;DHT22;12448;45.532;5.290;2023-01-25T11:42:10;3.10;94.40
24326;DHT22;12448;45.532;5.290;2023-01-25T11:55:28;3.20;94.10
24326;DHT22;12448;45.532;5.290;2023-01-25T12:16:40;3.20;93.00
24326;DHT22;12448;45.532;5.290;2023-01-25T12:22:23;3.20;93.10
24326;DHT22;12448;45.532;5.290;2023-01-25T12:33:14;3.10;92.60
24326;DHT22;12448;45.532;5.290;2023-01-25T12:35:53;3.20;92.70
24326;DHT22;12448;45.532;5.290;2023-01-25T12:40:58;3.20;92.50
24326;DHT22;12448;45.532;5.290;2023-01-25T12:43:36;3.20;92.60
24326;DHT22;12448;45.532;5.290;2023-01-25T12:46:20;3.20;92.70
24326;DHT22;12448;45.532;5.290;2023-01-25T12:48:49;3.30;92.70
24326;DHT22;12448;45.532;5.290;2023-01-25T12:51:18;3.20;92.50
24326;DHT22;12448;45.532;5.290;2023-01-25T12:53:46;3.50;92.50
24326;DHT22;12448;45.532;5.290;2023-01-25T12:56:39;3.20;92.40
24326;DHT22;12448;45.532;5.290;2023-01-25T12:59:29;3.30;92.40
24326;DHT22;12448;45.532;5.290;2023-01-25T13:02:21;3.20;92.40
24326;DHT22;12448;45.532;5.290;2023-01-25T13:10:33;3.10;91.90
24326;DHT22;12448;45.532;5.290;2023-01-25T13:13:02;3.10;92.00
24326;DHT22;12448;45.532;5.290;2023-01-25T13:15:43;3.10;92.10
24326;DHT22;12448;45.532;5.290;2023-01-25T13:18:36;3.10;92.00
24326;DHT22;12448;45.532;5.290;2023-01-25T13:21:06;3.10;92.20
24326;DHT22;12448;45.532;5.290;2023-01-25T13:23:39;3.00;92.00
24326;DHT22;12448;45.532;5.290;2023-01-25T13:28:57;3.10;91.70
24326;DHT22;12448;45.532;5.290;2023-01-25T13:34:02;3.20;91.30
24326;DHT22;12448;45.532;5.290;2023-01-25T13:42:03;3.30;91.40
24326;DHT22;12448;45.532;5.290;2023-01-25T13:44:31;3.30;91.20
24326;DHT22;12448;45.532;5.290;2023-01-25T13:47:01;3.60;91.40
24326;DHT22;12448;45.532;5.290;2023-01-25T13:49:35;3.20;91.30
24326;DHT22;12448;45.532;5.290;2023-01-25T13:52:02;3.30;91.40
24326;DHT22;12448;45.532;5.290;2023-01-25T13:54:29;3.30;91.30
24326;DHT22;12448;45.532;5.290;2023-01-25T13:57:12;3.40;91.10
24326;DHT22;12448;45.532;5.290;2023-01-25T13:59:38;3.30;90.80
24326;DHT22;12448;45.532;5.290;2023-01-25T14:02:23;3.30;90.80
24326;DHT22;12448;45.532;5.290;2023-01-25T14:04:50;3.30;90.80
24326;DHT22;12448;45.532;5.290;2023-01-25T14:07:18;3.50;91.10
24326;DHT22;12448;45.532;5.290;2023-01-25T14:09:49;3.40;91.00
24326;DHT22;12448;45.532;5.290;2023-01-25T14:12:39;3.40;91.00
24326;DHT22;12448;45.532;5.290;2023-01-25T14:15:24;3.50;90.70
24326;DHT22;12448;45.532;5.290;2023-01-25T14:18:13;3.50;90.70
24326;DHT22;12448;45.532;5.290;2023-01-25T14:20:40;3.60;90.80
24326;DHT22;12448;45.532;5.290;2023-01-25T14:23:22;3.40;91.10
24326;DHT22;12448;45.532;5.290;2023-01-25T14:25:48;3.40;90.80
24326;DHT22;12448;45.532;5.290;2023-01-25T14:28:14;3.40;91.10
24326;DHT22;12448;45.532;5.290;2023-01-25T14:30:40;3.40;90.80
24326;DHT22;12448;45.532;5.290;2023-01-25T14:33:23;3.50;90.70
24326;DHT22;12448;45.532;5.290;2023-01-25T14:35:51;3.50;90.80
24326;DHT22;12448;45.532;5.290;2023-01-25T14:38:32;3.50;90.50
24326;DHT22;12448;45.532;5.290;2023-01-25T14:43:48;3.40;90.30
24326;DHT22;12448;45.532;5.290;2023-01-25T14:46:30;3.50;90.30
24326;DHT22;12448;45.532;5.290;2023-01-25T14:51:42;3.50;90.30
24326;DHT22;12448;45.532;5.290;2023-01-25T14:54:15;3.50;90.30
24326;DHT22;12448;45.532;5.290;2023-01-25T14:59:23;3.60;90.40
24326;DHT22;12448;45.532;5.290;2023-01-25T15:01:52;3.60;90.20
24326;DHT22;12448;45.532;5.290;2023-01-25T15:04:19;3.60;90.30
24326;DHT22;12448;45.532;5.290;2023-01-25T15:06:50;3.60;90.30
24326;DHT22;12448;45.532;5.290;2023-01-25T15:09:36;3.50;90.30
24326;DHT22;12448;45.532;5.290;2023-01-25T15:12:26;3.60;90.40
24326;DHT22;12448;45.532;5.290;2023-01-25T15:14:54;3.60;90.50
24326;DHT22;12448;45.532;5.290;2023-01-25T15:20:04;3.60;90.60
24326;DHT22;12448;45.532;5.290;2023-01-25T15:22:30;3.60;90.40
24326;DHT22;12448;45.532;5.290;2023-01-25T15:24:56;3.50;90.50
24326;DHT22;12448;45.532;5.290;2023-01-25T15:27:21;3.50;90.40
24326;DHT22;12448;45.532;5.290;2023-01-25T15:29:47;3.60;90.50
24326;DHT22;12448;45.532;5.290;2023-01-25T15:32:18;3.60;90.40
24326;DHT22;12448;45.532;5.290;2023-01-25T15:34:45;3.60;90.40
24326;DHT22;12448;45.532;5.290;2023-01-25T15:37:11;3.60;90.40
24326;DHT22;12448;45.532;5.290;2023-01-25T15:39:37;3.50;90.30
24326;DHT22;12448;45.532;5.290;2023-01-25T15:42:04;3.50;90.30
24326;DHT22;12448;45.532;5.290;2023-01-25T15:44:29;3.50;90.50
24326;DHT22;12448;45.532;5.290;2023-01-25T15:46:55;3.50;90.60
24326;DHT22;12448;45.532;5.290;2023-01-25T15:49:26;3.60;90.50
24326;DHT22;12448;45.532;5.290;2023-01-25T15:51:53;3.60;90.40
24326;DHT22;12448;45.532;5.290;2023-01-25T15:54:19;3.60;90.40
24326;DHT22;12448;45.532;5.290;2023-01-25T15:56:47;3.50;90.50
24326;DHT22;12448;45.532;5.290;2023-01-25T15:59:17;3.50;90.50
24326;DHT22;12448;45.532;5.290;2023-01-25T16:01:43;3.60;90.50
24326;DHT22;12448;45.532;5.290;2023-01-25T16:04:09;3.60;90.50
24326;DHT22;12448;45.532;5.290;2023-01-25T16:11:41;3.60;90.40
24326;DHT22;12448;45.532;5.290;2023-01-25T16:14:07;3.50;90.40
24326;DHT22;12448;45.532;5.290;2023-01-25T16:16:37;3.60;90.30
24326;DHT22;12448;45.532;5.290;2023-01-25T16:19:03;3.50;90.30
24326;DHT22;12448;45.532;5.290;2023-01-25T16:21:28;3.40;90.30
24326;DHT22;12448;45.532;5.290;2023-01-25T16:23:54;3.40;90.30
24326;DHT22;12448;45.532;5.290;2023-01-25T16:26:23;3.40;90.40
24326;DHT22;12448;45.532;5.290;2023-01-25T16:28:49;3.70;90.50
24326;DHT22;12448;45.532;5.290;2023-01-25T16:31:16;3.40;90.50
24326;DHT22;12448;45.532;5.290;2023-01-25T16:33:42;3.50;90.50
24326;DHT22;12448;45.532;5.290;2023-01-25T16:36:16;3.40;90.60
24326;DHT22;12448;45.532;5.290;2023-01-25T16:38:43;3.40;90.60
24326;DHT22;12448;45.532;5.290;2023-01-25T16:41:09;3.40;90.60
24326;DHT22;12448;45.532;5.290;2023-01-25T16:43:45;3.40;90.80
24326;DHT22;12448;45.532;5.290;2023-01-25T16:46:18;3.50;90.80
24326;DHT22;12448;45.532;5.290;2023-01-25T16:48:45;3.40;90.90
24326;DHT22;12448;45.532;5.290;2023-01-25T16:51:16;3.40;90.90
24326;DHT22;12448;45.532;5.290;2023-01-25T16:53:43;3.40;91.00
24326;DHT22;12448;45.532;5.290;2023-01-25T16:58:49;3.30;91.10
24326;DHT22;12448;45.532;5.290;2023-01-25T17:01:16;3.30;91.20
24326;DHT22;12448;45.532;5.290;2023-01-25T17:03:43;3.30;91.20
24326;DHT22;12448;45.532;5.290;2023-01-25T17:06:16;3.30;91.60
24326;DHT22;12448;45.532;5.290;2023-01-25T17:08:43;3.40;91.40
24326;DHT22;12448;45.532;5.290;2023-01-25T17:11:09;3.40;91.40
24326;DHT22;12448;45.532;5.290;2023-01-25T17:13:34;3.40;91.40
24326;DHT22;12448;45.532;5.290;2023-01-25T17:16:00;3.30;91.40
24326;DHT22;12448;45.532;5.290;2023-01-25T17:18:26;3.30;91.50
24326;DHT22;12448;45.532;5.290;2023-01-25T17:21:00;3.30;91.60
24326;DHT22;12448;45.532;5.290;2023-01-25T17:23:26;3.30;91.70
24326;DHT22;12448;45.532;5.290;2023-01-25T17:25:53;3.30;91.80
24326;DHT22;12448;45.532;5.290;2023-01-25T17:28:20;3.30;91.80
24326;DHT22;12448;45.532;5.290;2023-01-25T17:30:46;3.30;91.90
24326;DHT22;12448;45.532;5.290;2023-01-25T17:33:11;3.30;91.90
24326;DHT22;12448;45.532;5.290;2023-01-25T17:35:38;3.40;91.90
24326;DHT22;12448;45.532;5.290;2023-01-25T17:38:04;3.40;91.90
24326;DHT22;12448;45.532;5.290;2023-01-25T17:40:29;3.30;91.90
24326;DHT22;12448;45.532;5.290;2023-01-25T17:42:55;3.40;92.00
24326;DHT22;12448;45.532;5.290;2023-01-25T17:45:20;3.40;92.00
24326;DHT22;12448;45.532;5.290;2023-01-25T17:47:46;3.40;92.00
24326;DHT22;12448;45.532;5.290;2023-01-25T17:50:12;3.40;92.00
24326;DHT22;12448;45.532;5.290;2023-01-25T17:52:38;3.40;92.00
24326;DHT22;12448;45.532;5.290;2023-01-25T17:55:04;3.40;92.00
24326;DHT22;12448;45.532;5.290;2023-01-25T17:57:30;3.40;92.00
24326;DHT22;12448;45.532;5.290;2023-01-25T17:59:56;3.60;92.10
24326;DHT22;12448;45.532;5.290;2023-01-25T18:02:21;3.40;91.90